Accueil
METAR-TAF:

METAR-TAF

Aéroports :

Nouméa / La Tontouta, Nouvelle-Calédonie

Aéroport international de Nouméa - La Tontouta

latitude: 22-01S, longitude: 166-13E, altitude: 16 m

Observation

Le bulletin a été fait il y a 17 minutes, à 06:30 UTC
Vent 15 kt de sud-est
Température 22°C
Humidité 60%
Pression 1016 hPa
Visibilité 10 km ou plus
Quelques nuages à une hauteur de 6000 ft

METAR: NWWW 240630Z AUTO 13015KT 9999 FEW060 22/14 Q1016 BECMG VRB02KT

Heure: 17:47 (06:47 UTC)

Prévision

Le bulletin a été fait il y a 1 heure et 47 minutes, à 05:00 UTC
Prévision valable du 24 à 06 UTC au 25 à 06 UTC
Vent 12 kt de sud/sud-est
Visibilité 10 km ou plus
Quelques nuages à une hauteur de 5000 ft
Evoluant progressivement
du 24 à 07 UTC au 24 à 09 UTC
Vent 2 kt de direction variable
Evoluant progressivement
du 24 à 22 UTC au 24 à 24 UTC
Vent 12 kt de sud

TAF: NWWW 240500Z 2406/2506 15012KT 9999 FEW050 BECMG 2407/2409 VRB02KT BECMG 2422/2424 18012KT

Observations et prévisions météorologiques de plus de 4000 aéroports (messages METAR et TAF).

Les stations disponibles sont représentées par des disques jaunes et rouges sur la carte.

Passer la souris dessus pour voir le nom de la station.

Cliquer dessus pour voir les observations et prévisions météorologiques.

Pour changer de carte: cliquez sur les boutons verts avec une croix noire pour zoomer, sur le bouton vert avec un tiret pour effectuer un zoom arrière, ou sur les flèches vertes pour les cartes adjacentes.


METAR-TAF: